sensor_id;sensor_type;location;lat;lon;timestamp;P1;durP1;ratioP1;P2;durP2;ratioP2
13592;SDS011;6867;50.998;4.250;2023-07-02T00:01:08;22.92;;;11.85;;
13592;SDS011;6867;50.998;4.250;2023-07-02T00:03:35;26.45;;;12.73;;
13592;SDS011;6867;50.998;4.250;2023-07-02T00:06:03;22.02;;;12.07;;
13592;SDS011;6867;50.998;4.250;2023-07-02T00:08:30;25.80;;;12.13;;
13592;SDS011;6867;50.998;4.250;2023-07-02T00:10:57;24.10;;;12.63;;
13592;SDS011;6867;50.998;4.250;2023-07-02T00:13:25;24.23;;;12.77;;
13592;SDS011;6867;50.998;4.250;2023-07-02T00:15:51;21.67;;;12.10;;
13592;SDS011;6867;50.998;4.250;2023-07-02T00:18:18;25.98;;;11.57;;
13592;SDS011;6867;50.998;4.250;2023-07-02T00:20:45;24.88;;;13.60;;
13592;SDS011;6867;50.998;4.250;2023-07-02T00:23:11;27.42;;;14.35;;
13592;SDS011;6867;50.998;4.250;2023-07-02T00:25:38;24.15;;;12.90;;
13592;SDS011;6867;50.998;4.250;2023-07-02T00:28:05;26.65;;;13.02;;
13592;SDS011;6867;50.998;4.250;2023-07-02T00:30:33;26.75;;;14.15;;
13592;SDS011;6867;50.998;4.250;2023-07-02T00:32:59;26.80;;;13.02;;
13592;SDS011;6867;50.998;4.250;2023-07-02T00:35:26;29.50;;;13.93;;
13592;SDS011;6867;50.998;4.250;2023-07-02T00:37:53;25.95;;;13.63;;
13592;SDS011;6867;50.998;4.250;2023-07-02T00:40:20;23.58;;;13.70;;
13592;SDS011;6867;50.998;4.250;2023-07-02T00:42:46;35.25;;;14.52;;
13592;SDS011;6867;50.998;4.250;2023-07-02T00:45:13;28.75;;;14.48;;
13592;SDS011;6867;50.998;4.250;2023-07-02T00:47:41;27.27;;;15.15;;
13592;SDS011;6867;50.998;4.250;2023-07-02T00:50:09;30.85;;;13.63;;
13592;SDS011;6867;50.998;4.250;2023-07-02T00:52:36;31.48;;;14.55;;
13592;SDS011;6867;50.998;4.250;2023-07-02T00:55:04;27.67;;;14.73;;
13592;SDS011;6867;50.998;4.250;2023-07-02T00:57:31;25.98;;;14.02;;
13592;SDS011;6867;50.998;4.250;2023-07-02T00:59:58;25.30;;;13.23;;
13592;SDS011;6867;50.998;4.250;2023-07-02T01:02:25;29.92;;;14.38;;
13592;SDS011;6867;50.998;4.250;2023-07-02T01:04:56;23.83;;;13.20;;
13592;SDS011;6867;50.998;4.250;2023-07-02T01:07:24;27.17;;;14.55;;
13592;SDS011;6867;50.998;4.250;2023-07-02T01:09:51;32.03;;;15.07;;
13592;SDS011;6867;50.998;4.250;2023-07-02T01:12:18;27.70;;;13.90;;
13592;SDS011;6867;50.998;4.250;2023-07-02T01:14:47;29.50;;;14.35;;
13592;SDS011;6867;50.998;4.250;2023-07-02T01:17:16;27.55;;;14.55;;
13592;SDS011;6867;50.998;4.250;2023-07-02T01:19:46;27.63;;;14.48;;
13592;SDS011;6867;50.998;4.250;2023-07-02T01:22:16;34.33;;;15.07;;
13592;SDS011;6867;50.998;4.250;2023-07-02T01:24:44;32.85;;;16.23;;
13592;SDS011;6867;50.998;4.250;2023-07-02T01:27:12;36.92;;;15.75;;
13592;SDS011;6867;50.998;4.250;2023-07-02T01:29:40;34.22;;;15.55;;
13592;SDS011;6867;50.998;4.250;2023-07-02T01:32:07;29.40;;;16.15;;
13592;SDS011;6867;50.998;4.250;2023-07-02T01:34:34;32.35;;;15.75;;
13592;SDS011;6867;50.998;4.250;2023-07-02T01:37:02;34.47;;;15.35;;
13592;SDS011;6867;50.998;4.250;2023-07-02T01:39:30;34.10;;;14.82;;
13592;SDS011;6867;50.998;4.250;2023-07-02T01:42:07;33.15;;;15.82;;
13592;SDS011;6867;50.998;4.250;2023-07-02T01:44:35;34.75;;;16.00;;
13592;SDS011;6867;50.998;4.250;2023-07-02T01:47:02;29.38;;;16.08;;
13592;SDS011;6867;50.998;4.250;2023-07-02T01:49:29;31.20;;;15.77;;
13592;SDS011;6867;50.998;4.250;2023-07-02T01:51:56;34.40;;;16.42;;
13592;SDS011;6867;50.998;4.250;2023-07-02T01:54:25;27.10;;;14.88;;
13592;SDS011;6867;50.998;4.250;2023-07-02T01:56:53;29.42;;;17.20;;
13592;SDS011;6867;50.998;4.250;2023-07-02T01:59:20;36.28;;;16.00;;
13592;SDS011;6867;50.998;4.250;2023-07-02T02:01:47;33.13;;;15.90;;
13592;SDS011;6867;50.998;4.250;2023-07-02T02:04:14;32.63;;;16.00;;
13592;SDS011;6867;50.998;4.250;2023-07-02T02:06:41;36.25;;;16.40;;
13592;SDS011;6867;50.998;4.250;2023-07-02T02:09:07;35.88;;;18.48;;
13592;SDS011;6867;50.998;4.250;2023-07-02T02:11:37;33.90;;;16.30;;
13592;SDS011;6867;50.998;4.250;2023-07-02T02:14:04;27.95;;;16.30;;
13592;SDS011;6867;50.998;4.250;2023-07-02T02:16:31;37.42;;;16.90;;
13592;SDS011;6867;50.998;4.250;2023-07-02T02:18:58;28.35;;;15.73;;
13592;SDS011;6867;50.998;4.250;2023-07-02T02:21:25;28.17;;;16.67;;
13592;SDS011;6867;50.998;4.250;2023-07-02T02:23:53;35.55;;;16.63;;
13592;SDS011;6867;50.998;4.250;2023-07-02T02:26:20;41.50;;;18.33;;
13592;SDS011;6867;50.998;4.250;2023-07-02T02:28:48;38.45;;;18.33;;
13592;SDS011;6867;50.998;4.250;2023-07-02T02:31:15;29.55;;;16.77;;
13592;SDS011;6867;50.998;4.250;2023-07-02T02:33:42;34.55;;;17.13;;
13592;SDS011;6867;50.998;4.250;2023-07-02T02:36:09;31.55;;;15.77;;
13592;SDS011;6867;50.998;4.250;2023-07-02T02:38:35;31.52;;;16.75;;
13592;SDS011;6867;50.998;4.250;2023-07-02T02:41:02;36.08;;;17.23;;
13592;SDS011;6867;50.998;4.250;2023-07-02T02:43:29;33.03;;;16.73;;
13592;SDS011;6867;50.998;4.250;2023-07-02T02:45:57;34.88;;;16.52;;
13592;SDS011;6867;50.998;4.250;2023-07-02T02:48:24;36.28;;;17.17;;
13592;SDS011;6867;50.998;4.250;2023-07-02T02:50:51;34.28;;;17.23;;
13592;SDS011;6867;50.998;4.250;2023-07-02T02:53:17;32.75;;;17.05;;
13592;SDS011;6867;50.998;4.250;2023-07-02T02:55:44;35.70;;;16.92;;
13592;SDS011;6867;50.998;4.250;2023-07-02T02:58:11;33.55;;;16.67;;
13592;SDS011;6867;50.998;4.250;2023-07-02T03:00:37;36.10;;;17.88;;
13592;SDS011;6867;50.998;4.250;2023-07-02T03:03:09;40.00;;;18.45;;
13592;SDS011;6867;50.998;4.250;2023-07-02T03:05:35;39.58;;;18.33;;
13592;SDS011;6867;50.998;4.250;2023-07-02T03:08:02;35.05;;;18.20;;
13592;SDS011;6867;50.998;4.250;2023-07-02T03:10:29;33.70;;;17.20;;
13592;SDS011;6867;50.998;4.250;2023-07-02T03:12:55;40.63;;;18.88;;
13592;SDS011;6867;50.998;4.250;2023-07-02T03:15:22;36.63;;;16.95;;
13592;SDS011;6867;50.998;4.250;2023-07-02T03:17:49;32.47;;;17.75;;
13592;SDS011;6867;50.998;4.250;2023-07-02T03:20:17;34.03;;;17.00;;
13592;SDS011;6867;50.998;4.250;2023-07-02T03:22:43;37.45;;;18.50;;
13592;SDS011;6867;50.998;4.250;2023-07-02T03:25:10;33.45;;;17.30;;
13592;SDS011;6867;50.998;4.250;2023-07-02T03:27:37;34.33;;;18.13;;
13592;SDS011;6867;50.998;4.250;2023-07-02T03:30:03;41.45;;;18.35;;
13592;SDS011;6867;50.998;4.250;2023-07-02T03:32:31;35.92;;;17.65;;
13592;SDS011;6867;50.998;4.250;2023-07-02T03:34:58;34.92;;;17.98;;
13592;SDS011;6867;50.998;4.250;2023-07-02T03:37:26;32.97;;;17.20;;
13592;SDS011;6867;50.998;4.250;2023-07-02T03:39:52;45.58;;;18.67;;
13592;SDS011;6867;50.998;4.250;2023-07-02T03:42:19;38.53;;;18.83;;
13592;SDS011;6867;50.998;4.250;2023-07-02T03:44:45;42.00;;;19.15;;
13592;SDS011;6867;50.998;4.250;2023-07-02T03:47:12;48.30;;;19.60;;
13592;SDS011;6867;50.998;4.250;2023-07-02T03:49:41;35.60;;;17.90;;
13592;SDS011;6867;50.998;4.250;2023-07-02T03:52:08;46.42;;;19.70;;
13592;SDS011;6867;50.998;4.250;2023-07-02T03:54:36;40.55;;;18.60;;
13592;SDS011;6867;50.998;4.250;2023-07-02T03:57:02;35.58;;;18.58;;
13592;SDS011;6867;50.998;4.250;2023-07-02T03:59:29;38.92;;;18.50;;
13592;SDS011;6867;50.998;4.250;2023-07-02T04:01:56;34.83;;;18.27;;
13592;SDS011;6867;50.998;4.250;2023-07-02T04:04:23;39.80;;;19.60;;
13592;SDS011;6867;50.998;4.250;2023-07-02T04:06:49;33.58;;;18.60;;
13592;SDS011;6867;50.998;4.250;2023-07-02T04:09:16;49.78;;;20.20;;
13592;SDS011;6867;50.998;4.250;2023-07-02T04:11:44;32.75;;;18.50;;
13592;SDS011;6867;50.998;4.250;2023-07-02T04:14:11;43.15;;;20.13;;
13592;SDS011;6867;50.998;4.250;2023-07-02T04:16:38;42.75;;;19.58;;
13592;SDS011;6867;50.998;4.250;2023-07-02T04:19:04;49.25;;;19.30;;
13592;SDS011;6867;50.998;4.250;2023-07-02T04:21:31;43.08;;;19.50;;
13592;SDS011;6867;50.998;4.250;2023-07-02T04:23:58;40.10;;;19.42;;
13592;SDS011;6867;50.998;4.250;2023-07-02T04:26:24;42.63;;;19.45;;
13592;SDS011;6867;50.998;4.250;2023-07-02T04:28:53;38.97;;;19.25;;
13592;SDS011;6867;50.998;4.250;2023-07-02T04:31:20;38.03;;;18.40;;
13592;SDS011;6867;50.998;4.250;2023-07-02T04:33:46;35.90;;;17.40;;
13592;SDS011;6867;50.998;4.250;2023-07-02T04:36:14;42.95;;;19.55;;
13592;SDS011;6867;50.998;4.250;2023-07-02T04:38:40;41.58;;;18.35;;
13592;SDS011;6867;50.998;4.250;2023-07-02T04:41:07;36.97;;;19.52;;
13592;SDS011;6867;50.998;4.250;2023-07-02T04:43:35;37.10;;;18.63;;
13592;SDS011;6867;50.998;4.250;2023-07-02T04:46:04;45.35;;;20.30;;
13592;SDS011;6867;50.998;4.250;2023-07-02T04:48:32;41.97;;;18.73;;
13592;SDS011;6867;50.998;4.250;2023-07-02T04:50:59;40.88;;;19.35;;
13592;SDS011;6867;50.998;4.250;2023-07-02T04:53:25;41.85;;;18.88;;
13592;SDS011;6867;50.998;4.250;2023-07-02T04:55:52;46.50;;;18.48;;
13592;SDS011;6867;50.998;4.250;2023-07-02T04:58:19;39.03;;;18.15;;
13592;SDS011;6867;50.998;4.250;2023-07-02T05:00:45;38.28;;;18.65;;
13592;SDS011;6867;50.998;4.250;2023-07-02T05:03:13;47.50;;;18.63;;
13592;SDS011;6867;50.998;4.250;2023-07-02T05:05:40;38.08;;;17.98;;
13592;SDS011;6867;50.998;4.250;2023-07-02T05:08:07;37.78;;;17.80;;
13592;SDS011;6867;50.998;4.250;2023-07-02T05:10:33;41.63;;;18.50;;
13592;SDS011;6867;50.998;4.250;2023-07-02T05:13:00;41.03;;;19.05;;
13592;SDS011;6867;50.998;4.250;2023-07-02T05:15:27;33.97;;;17.90;;
13592;SDS011;6867;50.998;4.250;2023-07-02T05:17:53;38.78;;;17.45;;
13592;SDS011;6867;50.998;4.250;2023-07-02T05:20:21;34.97;;;18.05;;
13592;SDS011;6867;50.998;4.250;2023-07-02T05:22:48;38.25;;;18.83;;
13592;SDS011;6867;50.998;4.250;2023-07-02T05:25:15;40.28;;;18.27;;
13592;SDS011;6867;50.998;4.250;2023-07-02T05:27:41;37.83;;;16.70;;
13592;SDS011;6867;50.998;4.250;2023-07-02T05:30:08;33.08;;;16.83;;
13592;SDS011;6867;50.998;4.250;2023-07-02T05:32:35;36.65;;;18.52;;
13592;SDS011;6867;50.998;4.250;2023-07-02T05:35:04;34.33;;;17.75;;
13592;SDS011;6867;50.998;4.250;2023-07-02T05:37:32;38.00;;;18.63;;
13592;SDS011;6867;50.998;4.250;2023-07-02T05:39:59;42.67;;;17.83;;
13592;SDS011;6867;50.998;4.250;2023-07-02T05:42:26;40.25;;;17.52;;
13592;SDS011;6867;50.998;4.250;2023-07-02T05:44:52;43.53;;;19.00;;
13592;SDS011;6867;50.998;4.250;2023-07-02T05:47:19;34.72;;;17.67;;
13592;SDS011;6867;50.998;4.250;2023-07-02T05:49:46;36.20;;;17.20;;
13592;SDS011;6867;50.998;4.250;2023-07-02T05:52:12;36.03;;;19.05;;
13592;SDS011;6867;50.998;4.250;2023-07-02T05:54:41;36.55;;;18.23;;
13592;SDS011;6867;50.998;4.250;2023-07-02T05:57:07;35.10;;;17.83;;
13592;SDS011;6867;50.998;4.250;2023-07-02T05:59:34;37.97;;;17.60;;
13592;SDS011;6867;50.998;4.250;2023-07-02T06:02:00;31.95;;;16.40;;
13592;SDS011;6867;50.998;4.250;2023-07-02T06:04:27;42.30;;;16.65;;
13592;SDS011;6867;50.998;4.250;2023-07-02T06:06:54;31.08;;;15.88;;
13592;SDS011;6867;50.998;4.250;2023-07-02T06:09:20;31.77;;;17.88;;
13592;SDS011;6867;50.998;4.250;2023-07-02T06:11:48;36.80;;;16.90;;
13592;SDS011;6867;50.998;4.250;2023-07-02T06:14:15;32.17;;;15.43;;
13592;SDS011;6867;50.998;4.250;2023-07-02T06:16:42;26.92;;;14.52;;
13592;SDS011;6867;50.998;4.250;2023-07-02T06:19:08;30.15;;;15.52;;
13592;SDS011;6867;50.998;4.250;2023-07-02T06:21:35;32.10;;;14.57;;
13592;SDS011;6867;50.998;4.250;2023-07-02T06:24:02;30.58;;;15.27;;
13592;SDS011;6867;50.998;4.250;2023-07-02T06:26:29;27.33;;;14.02;;
13592;SDS011;6867;50.998;4.250;2023-07-02T06:28:58;25.38;;;12.38;;
13592;SDS011;6867;50.998;4.250;2023-07-02T06:31:25;28.13;;;13.57;;
13592;SDS011;6867;50.998;4.250;2023-07-02T06:33:52;23.88;;;12.00;;
13592;SDS011;6867;50.998;4.250;2023-07-02T06:36:18;32.80;;;13.20;;
13592;SDS011;6867;50.998;4.250;2023-07-02T06:38:45;20.30;;;11.35;;
13592;SDS011;6867;50.998;4.250;2023-07-02T06:41:12;25.00;;;11.80;;
13592;SDS011;6867;50.998;4.250;2023-07-02T06:43:39;22.30;;;11.55;;
13592;SDS011;6867;50.998;4.250;2023-07-02T06:46:10;16.70;;;9.52;;
13592;SDS011;6867;50.998;4.250;2023-07-02T06:48:37;18.15;;;9.57;;
13592;SDS011;6867;50.998;4.250;2023-07-02T06:51:04;17.50;;;9.48;;
13592;SDS011;6867;50.998;4.250;2023-07-02T06:53:32;16.60;;;7.30;;
13592;SDS011;6867;50.998;4.250;2023-07-02T06:55:58;18.42;;;8.50;;
13592;SDS011;6867;50.998;4.250;2023-07-02T06:58:25;17.33;;;7.93;;
13592;SDS011;6867;50.998;4.250;2023-07-02T07:00:52;14.98;;;7.45;;
13592;SDS011;6867;50.998;4.250;2023-07-02T07:03:20;11.32;;;6.70;;
13592;SDS011;6867;50.998;4.250;2023-07-02T07:05:46;14.57;;;7.40;;
13592;SDS011;6867;50.998;4.250;2023-07-02T07:08:13;12.88;;;6.78;;
13592;SDS011;6867;50.998;4.250;2023-07-02T07:10:40;11.93;;;6.20;;
13592;SDS011;6867;50.998;4.250;2023-07-02T07:13:06;14.45;;;6.72;;
13592;SDS011;6867;50.998;4.250;2023-07-02T07:15:33;14.35;;;6.72;;
13592;SDS011;6867;50.998;4.250;2023-07-02T07:18:00;15.77;;;6.03;;
13592;SDS011;6867;50.998;4.250;2023-07-02T07:20:29;12.45;;;6.13;;
13592;SDS011;6867;50.998;4.250;2023-07-02T07:22:56;11.30;;;5.65;;
13592;SDS011;6867;50.998;4.250;2023-07-02T07:25:22;14.50;;;6.03;;
13592;SDS011;6867;50.998;4.250;2023-07-02T07:27:49;11.93;;;6.00;;
13592;SDS011;6867;50.998;4.250;2023-07-02T07:30:16;13.15;;;5.78;;
13592;SDS011;6867;50.998;4.250;2023-07-02T07:32:47;12.20;;;6.15;;
13592;SDS011;6867;50.998;4.250;2023-07-02T07:35:14;11.57;;;5.35;;
13592;SDS011;6867;50.998;4.250;2023-07-02T07:37:42;11.75;;;4.97;;
13592;SDS011;6867;50.998;4.250;2023-07-02T07:40:09;11.38;;;5.72;;
13592;SDS011;6867;50.998;4.250;2023-07-02T07:42:37;10.85;;;5.15;;
13592;SDS011;6867;50.998;4.250;2023-07-02T07:45:04;9.23;;;5.28;;
13592;SDS011;6867;50.998;4.250;2023-07-02T07:47:31;12.32;;;4.93;;
13592;SDS011;6867;50.998;4.250;2023-07-02T07:49:58;8.90;;;4.55;;
13592;SDS011;6867;50.998;4.250;2023-07-02T07:52:24;7.57;;;4.28;;
13592;SDS011;6867;50.998;4.250;2023-07-02T07:54:52;9.02;;;4.80;;
13592;SDS011;6867;50.998;4.250;2023-07-02T07:57:19;9.98;;;4.70;;
13592;SDS011;6867;50.998;4.250;2023-07-02T07:59:46;10.38;;;4.50;;
13592;SDS011;6867;50.998;4.250;2023-07-02T08:02:12;11.35;;;4.47;;
13592;SDS011;6867;50.998;4.250;2023-07-02T08:04:39;11.23;;;4.70;;
13592;SDS011;6867;50.998;4.250;2023-07-02T08:07:05;7.75;;;4.03;;
13592;SDS011;6867;50.998;4.250;2023-07-02T08:09:34;14.32;;;5.00;;
13592;SDS011;6867;50.998;4.250;2023-07-02T08:12:02;12.60;;;4.78;;
13592;SDS011;6867;50.998;4.250;2023-07-02T08:14:29;14.07;;;5.25;;
13592;SDS011;6867;50.998;4.250;2023-07-02T08:16:56;12.82;;;5.55;;
13592;SDS011;6867;50.998;4.250;2023-07-02T08:19:23;14.07;;;6.53;;
13592;SDS011;6867;50.998;4.250;2023-07-02T08:21:49;12.50;;;6.50;;
13592;SDS011;6867;50.998;4.250;2023-07-02T08:24:16;10.57;;;6.50;;
13592;SDS011;6867;50.998;4.250;2023-07-02T08:26:43;14.50;;;6.93;;
13592;SDS011;6867;50.998;4.250;2023-07-02T08:29:12;11.70;;;6.47;;
13592;SDS011;6867;50.998;4.250;2023-07-02T08:31:39;16.25;;;6.40;;
13592;SDS011;6867;50.998;4.250;2023-07-02T08:34:06;17.35;;;8.15;;
13592;SDS011;6867;50.998;4.250;2023-07-02T08:36:33;16.40;;;7.35;;
13592;SDS011;6867;50.998;4.250;2023-07-02T08:39:00;15.98;;;7.82;;
13592;SDS011;6867;50.998;4.250;2023-07-02T08:41:26;14.15;;;7.03;;
13592;SDS011;6867;50.998;4.250;2023-07-02T08:43:55;15.43;;;7.57;;
13592;SDS011;6867;50.998;4.250;2023-07-02T08:46:23;15.90;;;7.75;;
13592;SDS011;6867;50.998;4.250;2023-07-02T08:48:50;17.55;;;8.60;;
13592;SDS011;6867;50.998;4.250;2023-07-02T08:51:17;20.73;;;8.38;;
13592;SDS011;6867;50.998;4.250;2023-07-02T08:53:44;16.50;;;8.85;;
13592;SDS011;6867;50.998;4.250;2023-07-02T08:56:11;18.45;;;8.63;;
13592;SDS011;6867;50.998;4.250;2023-07-02T08:58:37;22.27;;;8.48;;
13592;SDS011;6867;50.998;4.250;2023-07-02T09:01:05;13.68;;;8.27;;
13592;SDS011;6867;50.998;4.250;2023-07-02T09:03:34;17.33;;;8.93;;
13592;SDS011;6867;50.998;4.250;2023-07-02T09:06:03;15.02;;;8.07;;
13592;SDS011;6867;50.998;4.250;2023-07-02T09:08:30;14.77;;;8.52;;
13592;SDS011;6867;50.998;4.250;2023-07-02T09:11:08;22.83;;;9.13;;
13592;SDS011;6867;50.998;4.250;2023-07-02T09:13:42;16.98;;;9.82;;
13592;SDS011;6867;50.998;4.250;2023-07-02T09:16:20;18.55;;;9.40;;
13592;SDS011;6867;50.998;4.250;2023-07-02T09:21:38;20.33;;;8.90;;
13592;SDS011;6867;50.998;4.250;2023-07-02T09:24:17;18.38;;;9.65;;
13592;SDS011;6867;50.998;4.250;2023-07-02T09:26:44;18.05;;;10.40;;
13592;SDS011;6867;50.998;4.250;2023-07-02T09:29:12;15.93;;;9.25;;
13592;SDS011;6867;50.998;4.250;2023-07-02T09:31:46;21.75;;;9.75;;
13592;SDS011;6867;50.998;4.250;2023-07-02T09:34:14;16.38;;;8.73;;
13592;SDS011;6867;50.998;4.250;2023-07-02T09:36:41;19.23;;;9.68;;
13592;SDS011;6867;50.998;4.250;2023-07-02T09:39:11;19.92;;;9.65;;
13592;SDS011;6867;50.998;4.250;2023-07-02T09:41:38;24.08;;;9.73;;
13592;SDS011;6867;50.998;4.250;2023-07-02T09:44:07;18.27;;;9.05;;
13592;SDS011;6867;50.998;4.250;2023-07-02T09:46:35;19.90;;;9.68;;
13592;SDS011;6867;50.998;4.250;2023-07-02T09:49:04;24.52;;;10.43;;
13592;SDS011;6867;50.998;4.250;2023-07-02T09:51:35;20.10;;;8.80;;
13592;SDS011;6867;50.998;4.250;2023-07-02T09:54:02;18.95;;;9.10;;
13592;SDS011;6867;50.998;4.250;2023-07-02T09:56:29;18.45;;;9.25;;
13592;SDS011;6867;50.998;4.250;2023-07-02T09:58:55;16.88;;;9.02;;
13592;SDS011;6867;50.998;4.250;2023-07-02T10:01:23;18.58;;;9.05;;
13592;SDS011;6867;50.998;4.250;2023-07-02T10:03:49;20.17;;;9.48;;
13592;SDS011;6867;50.998;4.250;2023-07-02T10:06:16;24.85;;;9.38;;
13592;SDS011;6867;50.998;4.250;2023-07-02T10:08:53;17.08;;;8.60;;
13592;SDS011;6867;50.998;4.250;2023-07-02T10:11:20;17.23;;;8.68;;
13592;SDS011;6867;50.998;4.250;2023-07-02T10:13:58;19.50;;;8.65;;
13592;SDS011;6867;50.998;4.250;2023-07-02T10:16:25;18.60;;;8.65;;
13592;SDS011;6867;50.998;4.250;2023-07-02T10:18:52;20.83;;;10.15;;
13592;SDS011;6867;50.998;4.250;2023-07-02T10:21:22;15.95;;;8.88;;
13592;SDS011;6867;50.998;4.250;2023-07-02T10:23:49;20.30;;;9.50;;
13592;SDS011;6867;50.998;4.250;2023-07-02T10:26:18;17.98;;;8.38;;
13592;SDS011;6867;50.998;4.250;2023-07-02T10:28:57;17.92;;;9.00;;
13592;SDS011;6867;50.998;4.250;2023-07-02T10:31:24;17.35;;;8.63;;
13592;SDS011;6867;50.998;4.250;2023-07-02T10:33:52;18.35;;;8.82;;
13592;SDS011;6867;50.998;4.250;2023-07-02T10:36:18;20.08;;;7.85;;
13592;SDS011;6867;50.998;4.250;2023-07-02T10:38:46;21.00;;;8.32;;
13592;SDS011;6867;50.998;4.250;2023-07-02T10:41:23;18.23;;;9.18;;
13592;SDS011;6867;50.998;4.250;2023-07-02T10:43:51;13.65;;;7.75;;
13592;SDS011;6867;50.998;4.250;2023-07-02T10:46:18;13.90;;;8.93;;
13592;SDS011;6867;50.998;4.250;2023-07-02T10:48:50;17.60;;;8.15;;
13592;SDS011;6867;50.998;4.250;2023-07-02T10:51:17;14.05;;;7.75;;
13592;SDS011;6867;50.998;4.250;2023-07-02T10:53:44;19.13;;;8.60;;
13592;SDS011;6867;50.998;4.250;2023-07-02T10:56:15;19.25;;;7.82;;
13592;SDS011;6867;50.998;4.250;2023-07-02T10:58:43;16.55;;;7.65;;
13592;SDS011;6867;50.998;4.250;2023-07-02T11:01:11;12.02;;;6.80;;
13592;SDS011;6867;50.998;4.250;2023-07-02T11:03:38;15.90;;;7.85;;
13592;SDS011;6867;50.998;4.250;2023-07-02T11:06:04;14.15;;;6.75;;
13592;SDS011;6867;50.998;4.250;2023-07-02T11:08:35;14.70;;;7.63;;
13592;SDS011;6867;50.998;4.250;2023-07-02T11:11:05;15.70;;;7.35;;
13592;SDS011;6867;50.998;4.250;2023-07-02T11:13:32;13.43;;;8.00;;
13592;SDS011;6867;50.998;4.250;2023-07-02T11:16:01;16.85;;;7.22;;
13592;SDS011;6867;50.998;4.250;2023-07-02T11:18:30;14.90;;;6.63;;
13592;SDS011;6867;50.998;4.250;2023-07-02T11:20:57;13.13;;;7.10;;
13592;SDS011;6867;50.998;4.250;2023-07-02T11:23:23;20.17;;;7.38;;
13592;SDS011;6867;50.998;4.250;2023-07-02T11:25:55;17.33;;;7.70;;
13592;SDS011;6867;50.998;4.250;2023-07-02T11:28:23;11.52;;;7.20;;
13592;SDS011;6867;50.998;4.250;2023-07-02T11:30:50;18.58;;;7.20;;
13592;SDS011;6867;50.998;4.250;2023-07-02T11:33:18;16.17;;;8.38;;
13592;SDS011;6867;50.998;4.250;2023-07-02T11:35:45;12.95;;;7.95;;
13592;SDS011;6867;50.998;4.250;2023-07-02T11:38:11;16.15;;;7.00;;
13592;SDS011;6867;50.998;4.250;2023-07-02T11:40:38;11.95;;;8.00;;
13592;SDS011;6867;50.998;4.250;2023-07-02T11:43:05;14.88;;;8.23;;
13592;SDS011;6867;50.998;4.250;2023-07-02T11:45:32;17.80;;;8.40;;
13592;SDS011;6867;50.998;4.250;2023-07-02T11:47:58;19.73;;;8.48;;
13592;SDS011;6867;50.998;4.250;2023-07-02T11:50:27;20.17;;;8.18;;
13592;SDS011;6867;50.998;4.250;2023-07-02T11:52:55;12.80;;;7.45;;
13592;SDS011;6867;50.998;4.250;2023-07-02T11:55:22;17.15;;;8.23;;
13592;SDS011;6867;50.998;4.250;2023-07-02T11:57:49;14.80;;;7.72;;
13592;SDS011;6867;50.998;4.250;2023-07-02T12:00:15;12.55;;;7.07;;
13592;SDS011;6867;50.998;4.250;2023-07-02T12:02:42;14.27;;;6.95;;
13592;SDS011;6867;50.998;4.250;2023-07-02T12:05:09;17.08;;;7.82;;
13592;SDS011;6867;50.998;4.250;2023-07-02T12:07:37;14.90;;;8.20;;
13592;SDS011;6867;50.998;4.250;2023-07-02T12:10:04;15.63;;;7.07;;
13592;SDS011;6867;50.998;4.250;2023-07-02T12:12:31;15.18;;;7.63;;
13592;SDS011;6867;50.998;4.250;2023-07-02T12:14:58;17.23;;;7.57;;
13592;SDS011;6867;50.998;4.250;2023-07-02T12:17:25;22.15;;;8.75;;
13592;SDS011;6867;50.998;4.250;2023-07-02T12:19:51;15.30;;;7.15;;
13592;SDS011;6867;50.998;4.250;2023-07-02T12:22:18;12.27;;;6.90;;
13592;SDS011;6867;50.998;4.250;2023-07-02T12:24:48;14.60;;;6.90;;
13592;SDS011;6867;50.998;4.250;2023-07-02T12:27:15;14.27;;;7.43;;
13592;SDS011;6867;50.998;4.250;2023-07-02T12:29:42;13.40;;;7.15;;
13592;SDS011;6867;50.998;4.250;2023-07-02T12:32:09;14.65;;;7.80;;
13592;SDS011;6867;50.998;4.250;2023-07-02T12:34:35;13.52;;;7.22;;
13592;SDS011;6867;50.998;4.250;2023-07-02T12:37:02;15.70;;;6.38;;
13592;SDS011;6867;50.998;4.250;2023-07-02T12:39:29;14.50;;;8.02;;
13592;SDS011;6867;50.998;4.250;2023-07-02T12:41:57;14.32;;;7.07;;
13592;SDS011;6867;50.998;4.250;2023-07-02T12:44:24;14.25;;;7.20;;
13592;SDS011;6867;50.998;4.250;2023-07-02T12:46:50;14.02;;;6.38;;
13592;SDS011;6867;50.998;4.250;2023-07-02T12:49:17;12.35;;;6.80;;
13592;SDS011;6867;50.998;4.250;2023-07-02T12:51:44;14.55;;;6.68;;
13592;SDS011;6867;50.998;4.250;2023-07-02T12:54:10;13.20;;;7.05;;
13592;SDS011;6867;50.998;4.250;2023-07-02T12:56:37;13.02;;;6.72;;
13592;SDS011;6867;50.998;4.250;2023-07-02T12:59:05;13.27;;;6.82;;
13592;SDS011;6867;50.998;4.250;2023-07-02T13:01:31;14.68;;;6.80;;
13592;SDS011;6867;50.998;4.250;2023-07-02T13:03:58;11.60;;;6.22;;
13592;SDS011;6867;50.998;4.250;2023-07-02T13:06:25;11.27;;;6.28;;
13592;SDS011;6867;50.998;4.250;2023-07-02T13:08:52;11.43;;;5.90;;
13592;SDS011;6867;50.998;4.250;2023-07-02T13:11:20;14.02;;;7.25;;
13592;SDS011;6867;50.998;4.250;2023-07-02T13:13:47;15.18;;;7.20;;
13592;SDS011;6867;50.998;4.250;2023-07-02T13:16:15;15.70;;;6.90;;
13592;SDS011;6867;50.998;4.250;2023-07-02T13:18:42;14.48;;;6.43;;
13592;SDS011;6867;50.998;4.250;2023-07-02T13:21:08;10.60;;;6.22;;
13592;SDS011;6867;50.998;4.250;2023-07-02T13:23:35;12.00;;;6.53;;
13592;SDS011;6867;50.998;4.250;2023-07-02T13:26:02;14.88;;;6.70;;
13592;SDS011;6867;50.998;4.250;2023-07-02T13:28:28;15.20;;;7.03;;
13592;SDS011;6867;50.998;4.250;2023-07-02T13:30:55;16.23;;;7.03;;
13592;SDS011;6867;50.998;4.250;2023-07-02T13:33:23;13.45;;;6.40;;
13592;SDS011;6867;50.998;4.250;2023-07-02T13:35:51;15.00;;;6.88;;
13592;SDS011;6867;50.998;4.250;2023-07-02T13:38:17;12.45;;;6.40;;
13592;SDS011;6867;50.998;4.250;2023-07-02T13:40:44;16.08;;;6.40;;
13592;SDS011;6867;50.998;4.250;2023-07-02T13:43:11;13.50;;;6.55;;
13592;SDS011;6867;50.998;4.250;2023-07-02T13:45:37;14.20;;;6.63;;
13592;SDS011;6867;50.998;4.250;2023-07-02T13:48:04;15.63;;;7.35;;
13592;SDS011;6867;50.998;4.250;2023-07-02T13:50:32;16.50;;;6.78;;
13592;SDS011;6867;50.998;4.250;2023-07-02T13:52:59;13.73;;;6.63;;
13592;SDS011;6867;50.998;4.250;2023-07-02T13:55:26;10.70;;;6.25;;
13592;SDS011;6867;50.998;4.250;2023-07-02T13:57:53;12.45;;;6.80;;
13592;SDS011;6867;50.998;4.250;2023-07-02T14:00:22;18.08;;;7.90;;
13592;SDS011;6867;50.998;4.250;2023-07-02T14:02:49;10.20;;;5.82;;
13592;SDS011;6867;50.998;4.250;2023-07-02T14:05:15;15.00;;;6.35;;
13592;SDS011;6867;50.998;4.250;2023-07-02T14:07:42;12.25;;;6.18;;
13592;SDS011;6867;50.998;4.250;2023-07-02T14:10:09;14.30;;;6.22;;
13592;SDS011;6867;50.998;4.250;2023-07-02T14:12:37;14.75;;;7.05;;
13592;SDS011;6867;50.998;4.250;2023-07-02T14:15:04;11.98;;;6.30;;
13592;SDS011;6867;50.998;4.250;2023-07-02T14:17:33;13.95;;;6.90;;
13592;SDS011;6867;50.998;4.250;2023-07-02T14:20:00;11.35;;;6.30;;
13592;SDS011;6867;50.998;4.250;2023-07-02T14:22:26;14.63;;;6.35;;
13592;SDS011;6867;50.998;4.250;2023-07-02T14:24:53;11.50;;;5.93;;
13592;SDS011;6867;50.998;4.250;2023-07-02T14:27:20;11.80;;;6.22;;
13592;SDS011;6867;50.998;4.250;2023-07-02T14:29:47;13.20;;;6.22;;
13592;SDS011;6867;50.998;4.250;2023-07-02T14:32:13;11.07;;;5.70;;
13592;SDS011;6867;50.998;4.250;2023-07-02T14:34:42;12.52;;;6.28;;
13592;SDS011;6867;50.998;4.250;2023-07-02T14:37:09;11.77;;;5.85;;
13592;SDS011;6867;50.998;4.250;2023-07-02T14:39:36;18.05;;;6.43;;
13592;SDS011;6867;50.998;4.250;2023-07-02T14:42:03;11.27;;;6.00;;
13592;SDS011;6867;50.998;4.250;2023-07-02T14:44:31;12.85;;;6.65;;